Terminal Aerodrome Forecast
Issued by NWS

Home | Current Version | Previous Version | Graphics & Text | Print | Product List | Glossary On
Versions: 1 2 3 4 5 6 7 8 9 10 11 12 13 14 15 16 17 18 19 20
000
FTUS43 KICT 162115 AAA
TAFCNU
TAF AMD
KCNU 162115Z 1621/1718 18012KT P6SM VCTS BKN040CB
      TEMPO 1622/1702 VRB30G40KT 3SM +TSRA BKN025CB
     FM170300 23011KT P6SM VCTS BKN035CB
     FM170600 25010KT P6SM BKN040=

USA.gov is the U.S. government's official web portal to all federal, state and local government web resources and services.